Caliente, Nevada Weather observations

Data are for observation ending at time listed.
 Day   Time    Ave.   Ave.  Ave.  Vector   Max.   Stn.    Total    Solar   Ave.  
  of    of     Air    Rel.  Wind   Wind    Wind   Baro.  Precip.   Rad.    Soil  
Year   Day     Temp.  Hum.  Speed  Dir.    Gust   Pres.                    Temp. 
2014   (PST)    F      %     mph   deg.    mph     mb.     in.     W/m2     F   
------------------------------------------------------------------------------
 110    6:40   49.5    48    1.6     8      2.9   869.7    0.00     246    62.7
 110    6:50   50.1    47    2.5     4      4.4   869.8    0.00     264    62.6
 110    7:00   51.9    44    1.8    18      4.2   869.8    0.00     291    62.6
 110    7:10   54.9    40    0.6    81      2.1   869.8    0.00     324    62.5
 110    7:20   55.4    39    2.3    42      5.6   869.7    0.00     356    62.5
 110    7:30   57.1    37    1.1    90      3.0   869.7    0.00     379    62.4
 110    7:40   58.5    36    1.4    10      4.0   869.6    0.00     398    62.4
 110    7:50   60.2    34    0.8    69      2.8   869.6    0.00     394    62.5
 110    8:00   60.7    34    1.5   104      3.4   869.6    0.00     411    62.5
 110    8:10   62.3    32    1.1    50      3.3   869.5    0.00     429    62.5
 110    8:20   63.9    31    1.4    37      4.0   869.5    0.00     488    62.6
 110    8:30   64.1    31    1.9    19      3.8   869.5    0.00     506    62.7
 110    8:40   65.9    29    1.3   142      2.5   869.4    0.00     543    62.8
 110    8:50   67.5    28    1.3   286      3.5   869.5    0.00     557    63.0
 110    9:00   68.1    27    1.9   289      3.6   869.4    0.00     570    63.2
 110    9:10   69.0    26    1.1    28      3.4   869.4    0.00     254    63.4
 110    9:20   70.5    26    1.0   114      3.3   869.4    0.00     306    63.6
 110    9:30   72.0    24    1.6   146      4.5   869.4    0.00     646    63.9
 110    9:40   72.5    23    1.8   202      5.5   869.3    0.00     638    64.0
 110    9:50   73.3    22    1.9   228      4.8   869.2    0.00     669    64.2
 110   10:00   74.2    21    1.9   191      5.0   869.1    0.00     673    64.4
 110   10:10   73.4    22    2.9   189      7.7   869.1    0.00     684    64.6
 110   10:20   74.4    20    2.1    62      6.6   868.9    0.00     683    64.9
 110   10:30   74.6    21    2.2   122      5.8   868.8    0.00     729    65.2
 110   10:40   74.9    21    4.3   247     12.4   868.7    0.00     749    65.5
 110   10:50   75.7    20    1.5   187      4.5   868.7    0.00     751    65.8
 110   11:00   76.4    19    3.1   200      7.5   868.6    0.00     823    66.1
 110   11:10   77.2    19    2.4   250     10.2   868.5    0.00     816    66.4
 110   11:20   76.3    19    5.0   249     11.1   868.4    0.00     401    66.6
 110   11:30   75.7    19    6.1   246     16.4   868.3    0.00     740    66.8
 110   11:40   75.8    19    6.3   265     12.3   868.2    0.00     250    67.1
 110   11:50   75.3    19    4.0   253     10.1   868.2    0.00     507    67.4
 110   12:00   77.1    18    4.4   251     11.5   868.1    0.00     627    67.6
 110   12:10   75.4    19    5.6   248     11.6   868.0    0.00     315    67.8
 110   12:20   76.8    18    3.2   243     11.8   867.9    0.00     814    68.1
 110   12:30   76.5    18    5.0   245     11.5   867.8    0.00     230    68.3
 110   12:40   75.5    19    4.3   250      8.6   867.9    0.00     209    68.6
 110   12:50   76.0    18    4.4   248      9.3   868.0    0.00     464    68.8
 110   13:00   76.2    18    2.7   247      6.9   867.9    0.00     370    69.1
 110   13:10   76.8    16    5.1   257     11.7   867.8    0.00     423    69.4
 110   13:20   77.4    17    4.0   249     10.1   867.7    0.00     700    69.8
 110   13:30   77.9    16    5.0   250     12.1   867.6    0.00     693    70.1
 110   13:40   78.3    17    3.7   238      8.8   867.5    0.00     436    70.6
 110   13:50   76.6    17    4.0   219      7.9   867.4    0.00     161    71.2
 110   14:00   76.2    16    2.2   171      6.7   867.3    0.00     163    71.7
 110   14:10   76.2    17    3.4   141      8.1   867.2    0.00     152    72.0
 110   14:20   75.8    17    2.0   119      5.8   867.1    0.00     170    72.3
 110   14:30   76.3    16    1.6   176      6.6   867.1    0.00     122    72.4
 110   14:40   76.1    16    2.4   144      7.3   867.0    0.00     123    72.6
 110   14:50   76.7    16    1.5   143      6.7   866.9    0.00     207    72.7
 110   15:00   78.4    15    2.3   190      8.2   866.8    0.00     610    72.8
 110   15:10   79.8    14    1.9   225      4.7   866.8    0.00     509    73.2
 110   15:20   80.1    14    4.6   250     10.4   866.8    0.00     526    73.7
 110   15:30   79.3    14    6.1   252     17.8   866.8    0.00     283    74.3
 110   15:40   78.0    14    9.8   251     15.8   866.7    0.00     118    74.9
 110   15:50   77.5    14    6.9   247     11.1   866.8    0.00      98    75.2
 110   16:00   76.9    15    3.4   247      8.8   866.8    0.00     112    75.4
 110   16:10   77.9    14    2.1   247      4.9   866.7    0.00     359    75.4
 110   16:20   78.9    14    2.0   196      4.2   866.7    0.00     266    75.5
 110   16:30   77.9    14    6.8   256     12.4   866.7    0.00     117    75.8
 110   16:40   77.6    14    6.4   256     11.2   866.6    0.00     106    76.0
 110   16:50   77.5    14    7.6   252     14.6   866.6    0.00     170    76.0
 110   17:00   77.6    15    8.0   247     14.7   866.6    0.00     177    76.1
 110   17:10   77.2    15    7.5   247     13.8   866.6    0.00     113    76.1
 110   17:20   76.7    15    5.9   248     11.6   866.6    0.00     115    76.2
 110   17:30   76.7    16    3.7   245      7.5   866.6    0.00     110    76.2
 110   17:40   76.7    16    3.1   245      5.7   866.6    0.00      74    76.3
 110   17:50   76.2    16    4.4   246     11.7   866.6    0.00      49    76.3
 110   18:00   75.4    16    4.2   247      9.0   866.6    0.00      24    76.2
 110   18:10   74.4    17    3.6   246      5.7   866.8    0.00      12    76.1
 110   18:20   73.7    18    2.6   245      5.8   866.8    0.00       4    76.0
 110   18:30   73.4    18    1.3   243      3.7   866.9    0.00       3    75.8
 110   18:40   72.2    20    0.2   249      1.8   867.0    0.00       1    75.6
 110   18:50   70.5    22    0.1   252      1.3   867.0    0.00       0    75.4
 110   19:00   69.0    23    0.4   120      1.6   867.1    0.00       0    75.2
 110   19:10   68.2    23    0.3     4      1.5   867.3    0.00       0    75.0
 110   19:20   67.3    24    0.6   112      2.1   867.4    0.00       0    74.8
 110   19:30   67.2    23    0.7   140      2.4   867.5    0.00       0    74.5
 110   19:40   66.3    25    0.9   305      2.2   867.7    0.00       1    74.3
 110   19:50   65.0    26    0.7   145      2.0   867.8    0.00       1    74.1
 110   20:00   64.2    27    0.4   182      1.5   868.0    0.00       1    73.9
 110   20:10   63.7    28    0.2   174      1.9   868.2    0.00       0    73.6
 110   20:20   62.9    29    0.4   152      1.5   868.3    0.00       2    73.4
 110   20:30   62.8    29    0.6   173      1.9   868.4    0.00       1    73.2
 110   20:40   62.5    29    0.1   181      1.2   868.5    0.00       1    73.0
 110   20:50   62.5    29    0.5    86      1.5   868.5    0.00       1    72.8
 110   21:00   62.3    30    0.6    68      2.3   868.5    0.00       1    72.7
 110   21:10   61.7    30    1.5   109      2.9   868.5    0.00       1    72.5
 110   21:20   61.4    30    0.9   113      1.9   868.6    0.00       1    72.3
 110   21:30   61.1    30    0.6    46      2.4   868.7    0.00       0    72.1
 110   21:40   61.0    30    1.3    79      2.5   868.7    0.00       1    71.9
 110   21:50   60.3    31    0.5   155      1.8   868.8    0.00       1    71.7
 110   22:00   60.1    31    0.1    88      0.7   868.8    0.00       0    71.6
 110   22:10   60.1    31    0.8    59      3.2   868.8    0.00       1    71.4
 110   22:20   59.9    32    1.3    67      2.6   868.9    0.00       1    71.2
 110   22:30   58.8    33    1.1   112      1.9   869.0    0.00       0    71.1
 110   22:40   58.3    34    0.5    74      1.5   869.1    0.00       1    70.9
 110   22:50   57.5    36    0.9    59      1.8   869.2    0.00       0    70.7
 110   23:00   56.6    37    1.1    62      2.2   869.2    0.00       1    70.5
 110   23:10   56.1    38    0.7    52      2.1   869.2    0.00       0    70.3
 110   23:20   55.7    39    0.2   113      0.9   869.3    0.00       0    70.1
 110   23:30   54.9    39    0.5   104      1.3   869.4    0.00       0    70.0
 110   23:40   54.5    40    0.6   108      1.5   869.4    0.00       0    69.8
 110   23:50   54.4    40    1.1    64      4.4   869.4    0.00       0    69.6
 111    0:00   54.4    40    0.9    64      2.0   869.3    0.00       0    69.4
 111    0:10   53.8    41    0.2   118      1.5   869.4    0.00       0    69.3
 111    0:20   53.3    42    0.1   185      1.4   869.3    0.00       0    69.1
 111    0:30   52.8    42    0.7   116      1.8   869.4    0.00       0    68.9
 111    0:40   53.9    38    0.3   173      1.6   869.5    0.00       0    68.7
 111    0:50   54.3    38    0.9    53      2.4   869.5    0.00       0    68.6
 111    1:00   53.9    38    1.9   121      4.5   869.6    0.00       0    68.4
 111    1:10   53.2    42    1.2   347      2.4   869.6    0.00       0    68.2
 111    1:20   52.2    43    0.7    54      2.7   869.7    0.00       0    68.1
 111    1:30   51.7    44    0.2   167      1.4   869.7    0.00       0    67.9
 111    1:40   51.2    44    0.9   110      3.4   869.8    0.00       0    67.7
 111    1:50   52.0    42    0.1   202      1.5   869.8    0.00       0    67.6
 111    2:00   51.7    44    0.8   248      3.4   869.8    0.00       0    67.4
 111    2:10   51.2    45    1.7   226      4.7   869.9    0.00       0    67.2
 111    2:20   50.3    46    0.4   190      1.5   870.0    0.00       0    67.0
 111    2:30   50.3    46    0.2   229      1.3   870.1    0.00       0    66.8
 111    2:40   50.1    46    0.6   306      1.8   870.2    0.00       0    66.7
 111    2:50   49.4    49    0.9   124      2.0   870.2    0.00       0    66.5
 111    3:00   48.8    48    1.1   256      2.3   870.2    0.00       0    66.4
 111    3:10   48.3    49    1.0   162      2.3   870.3    0.00       0    66.2
 111    3:20   48.7    48    0.4   118      1.4   870.3    0.00       0    66.1
 111    3:30   48.5    48    0.3   230      1.9   870.4    0.00       0    65.9
 111    3:40   47.9    50    0.1   202      1.1   870.4    0.00       0    65.7
 111    3:50   47.6    51    0.5    52      4.4   870.4    0.00       0    65.6
 111    4:00   47.2    52    0.6   111      2.2   870.5    0.00       0    65.4
 111    4:10   47.0    51    0.8   117      2.3   870.7    0.00       0    65.3
 111    4:20   47.1    50    0.4    24      1.6   870.7    0.00       0    65.1
 111    4:30   46.9    51    0.5    80      1.5   870.7    0.00       0    65.0
 111    4:40   46.4    52    0.6   116      1.2   870.8    0.00       0    64.8
 111    4:50   45.7    54    0.7   108      1.5   870.8    0.00       0    64.7
 111    5:00   45.5    54    0.5    98      1.5   870.9    0.00       3    64.5
 111    5:10   45.0    55    1.0    98      2.5   870.9    0.00       6    64.4
 111    5:20   45.1    55    0.5   130      1.5   871.0    0.00      10    64.2
 111    5:30   44.7    55    0.5   141      1.4   871.1    0.00      16    64.0
 111    5:40   44.8    55    0.6    91      1.8   871.2    0.00      27    63.9
 111    5:50   45.9    51    1.4    95      3.0   871.4    0.00      38    63.8
 111    6:00   46.9    48    1.7    82      3.6   871.4    0.00      44    63.6
 111    6:10   47.7    47    3.0    28      5.0   871.5    0.00      83    63.5
 111    6:20   48.7    46    1.6    50      4.4   871.5    0.00     220    63.3
 111    6:30   51.2    41    2.5    47      5.8   871.5    0.00     258    63.3

Return to Caliente, Nevada graphs page.


Western Regional Climate Center,wrcc@dri.edu